Time;durP1;ratioP1;P1;durP2;ratioP2;P2;SDS_P1;SDS_P2;PMS_P1;PMS_P2;Temp;Humidity;BMP_temperature;BMP_pressure;BME280_temperature;BME280_humidity;BME280_pressure;Samples;Min_cycle;Max_cycle;Signal;HPM_P1;HPM_P2
2021/12/17 00:00:18;;;;;;;15.13;9.80;;;;;;;5.94;62.91;95270.63;5065416;28;20324;-74
2021/12/17 00:05:31;;;;;;;10.77;8.30;;;;;;;5.57;63.31;95264.63;5066897;28;20403;-74
2021/12/17 00:07:56;;;;;;;10.90;9.17;;;;;;;6.02;61.04;95271.53;5066844;28;20444;-74
2021/12/17 00:10:22;;;;;;;12.97;9.03;;;;;;;5.96;61.96;95277.34;5066372;28;20408;-73
2021/12/17 00:12:47;;;;;;;10.40;8.80;;;;;;;5.93;61.99;95266.41;5066202;28;20171;-74
2021/12/17 00:15:13;;;;;;;13.17;8.37;;;;;;;6.13;61.22;95273.09;5066714;28;20166;-74
2021/12/17 00:17:49;;;;;;;10.60;9.50;;;;;;;5.87;61.42;95280.81;5067107;28;20213;-73
2021/12/17 00:53:07;;;;;;;7.37;6.63;;;;;;;5.97;60.36;95265.97;5047147;28;20467;-74
2021/12/17 00:55:33;;;;;;;8.50;7.20;;;;;;;5.64;61.00;95265.66;5044371;28;20317;-73
2021/12/17 00:57:58;;;;;;;7.33;6.50;;;;;;;5.81;60.32;95256.25;5045299;28;20184;-74
2021/12/17 01:00:25;;;;;;;8.40;7.57;;;;;;;5.95;59.74;95270.50;5043951;28;20163;-73
2021/12/17 01:02:51;;;;;;;9.50;6.60;;;;;;;5.65;60.07;95266.47;5045309;28;20178;-74
2021/12/17 01:05:23;;;;;;;10.63;7.87;;;;;;;5.86;60.44;95271.38;5046263;28;20438;-74
2021/12/17 01:07:51;;;;;;;7.73;6.40;;;;;;;5.38;60.96;95264.78;5045618;28;20421;-74
2021/12/17 01:10:23;;;;;;;8.43;7.53;;;;;;;5.56;60.78;95263.00;5045041;28;20418;-74
2021/12/17 01:12:49;;;;;;;11.33;7.37;;;;;;;5.52;61.04;95259.09;5045227;28;20422;-74
2021/12/17 01:15:18;;;;;;;8.07;5.97;;;;;;;5.56;60.61;95252.63;5046424;28;20434;-73
2021/12/17 01:17:46;;;;;;;10.40;5.80;;;;;;;5.67;60.06;95255.00;5044515;28;20191;-74
2021/12/17 01:25:15;;;;;;;6.77;4.33;;;;;;;5.46;59.55;95246.66;5047666;28;20414;-74
2021/12/17 01:35:53;;;;;;;7.10;5.23;;;;;;;5.27;60.29;95232.88;5048933;28;20412;-74
2021/12/17 01:43:45;;;;;;;5.87;5.33;;;;;;;5.64;58.71;95229.31;5048886;28;20383;-74
2021/12/17 01:46:21;;;;;;;4.50;4.10;;;;;;;5.43;59.36;95218.44;5049406;28;20410;-74
2021/12/17 01:49:19;;;;;;;4.97;4.30;;;;;;;5.26;59.82;95218.28;5051042;28;20418;-74
2021/12/17 02:00:13;;;;;;;6.00;4.47;;;;;;;5.46;58.91;95210.34;5048632;28;20433;-74
2021/12/17 02:02:45;;;;;;;6.63;5.33;;;;;;;5.38;59.91;95218.88;5051533;28;20552;-74
2021/12/17 02:05:12;;;;;;;4.43;4.03;;;;;;;5.29;59.23;95219.75;5050480;28;20978;-74
2021/12/17 02:07:38;;;;;;;5.40;4.90;;;;;;;5.28;59.27;95228.50;5050446;28;20458;-73
2021/12/17 02:13:03;;;;;;;7.70;5.43;;;;;;;5.60;58.75;95224.59;5050190;28;20449;-74
2021/12/17 02:21:23;;;;;;;7.40;5.90;;;;;;;5.62;58.51;95217.47;5049248;28;20456;-75
2021/12/17 02:32:10;;;;;;;5.70;5.13;;;;;;;6.05;57.75;95211.50;5049871;28;20449;-74
2021/12/17 02:35:11;;;;;;;6.20;5.50;;;;;;;6.13;57.41;95204.69;5049242;28;20424;-73
2021/12/17 02:37:40;;;;;;;5.53;5.03;;;;;;;5.87;58.92;95206.28;5049326;28;20494;-73
2021/12/17 02:42:20;;;;;;;5.73;5.20;;;;;;;5.97;58.21;95206.22;5049016;28;20422;-73
2021/12/17 02:45:32;;;;;;;5.60;4.77;;;;;;;5.78;58.57;95203.78;5047912;28;20966;-73
2021/12/17 02:48:19;;;;;;;5.87;5.23;;;;;;;5.97;58.87;95198.44;5051262;28;20383;-73
2021/12/17 02:50:48;;;;;;;5.53;4.90;;;;;;;5.96;58.50;95201.22;5049354;28;20525;-73
2021/12/17 02:53:16;;;;;;;7.20;4.93;;;;;;;5.94;58.32;95198.72;5048786;28;20909;-74
2021/12/17 02:55:45;;;;;;;4.97;4.50;;;;;;;5.87;58.99;95210.69;5049429;28;20449;-74
2021/12/17 02:58:10;;;;;;;7.93;4.93;;;;;;;6.36;58.18;95215.44;5081249;28;20488;-73
2021/12/17 03:00:40;;;;;;;7.90;5.60;;;;;;;5.99;59.19;95211.28;5049803;28;20549;-74
2021/12/17 03:03:07;;;;;;;6.90;6.20;;;;;;;6.27;58.16;95208.53;5048883;28;20172;-74
2021/12/17 03:05:34;;;;;;;7.30;5.67;;;;;;;6.00;58.97;95213.72;5047303;28;20481;-73
2021/12/17 03:08:05;;;;;;;6.97;5.77;;;;;;;6.29;57.76;95217.81;5048997;28;20437;-74
2021/12/17 03:10:31;;;;;;;6.73;6.10;;;;;;;6.16;58.77;95210.41;5048047;28;20426;-74
2021/12/17 03:13:00;;;;;;;6.20;5.60;;;;;;;6.49;58.03;95201.97;5048465;28;20469;-74
2021/12/17 03:26:14;;;;;;;7.07;6.10;;;;;;;6.67;58.52;95200.13;5048110;28;20421;-74
2021/12/17 03:28:43;;;;;;;6.37;5.77;;;;;;;6.43;58.78;95214.66;5046865;28;20379;-74
2021/12/17 03:31:10;;;;;;;7.23;5.70;;;;;;;5.89;61.72;95200.97;5051034;28;20406;-74
2021/12/17 03:33:41;;;;;;;7.57;6.37;;;;;;;6.31;60.75;95209.88;5045394;28;20874;-74
2021/12/17 03:36:07;;;;;;;7.20;5.67;;;;;;;6.29;60.19;95212.59;5047300;28;20405;-74
2021/12/17 03:38:34;;;;;;;5.73;5.23;;;;;;;5.96;61.72;95204.63;5047585;28;20525;-74
2021/12/17 03:41:19;;;;;;;5.80;4.67;;;;;;;6.01;62.34;95204.97;5046701;28;20414;-73
2021/12/17 03:43:46;;;;;;;7.17;6.23;;;;;;;5.99;62.86;95196.50;5047714;28;20430;-74
2021/12/17 03:46:13;;;;;;;5.97;4.90;;;;;;;5.42;65.25;95189.06;5047928;28;20537;-75
2021/12/17 03:48:40;;;;;;;6.50;5.37;;;;;;;5.74;64.97;95192.09;5047517;28;20406;-73
2021/12/17 03:51:12;;;;;;;9.00;7.13;;;;;;;5.90;64.38;95179.22;5048833;28;20414;-74
2021/12/17 03:53:38;;;;;;;7.17;6.47;;;;;;;5.93;64.70;95184.09;5047354;28;20894;-74
2021/12/17 03:56:04;;;;;;;8.13;7.33;;;;;;;6.22;64.04;95191.63;5046500;28;20414;-73
2021/12/17 03:58:30;;;;;;;9.93;8.30;;;;;;;6.18;63.38;95184.28;5050185;28;20450;-74
2021/12/17 04:00:55;;;;;;;8.47;7.43;;;;;;;6.11;63.37;95180.66;5048834;28;20414;-74
2021/12/17 04:03:21;;;;;;;10.57;7.93;;;;;;;6.21;63.47;95173.59;5048800;28;20207;-74
2021/12/17 04:05:46;;;;;;;9.13;7.00;;;;;;;6.31;63.33;95171.69;5048503;28;20631;-74
2021/12/17 04:08:12;;;;;;;9.20;6.93;;;;;;;6.28;63.61;95174.63;5048267;28;20155;-74
2021/12/17 04:10:44;;;;;;;7.43;6.70;;;;;;;6.26;63.10;95160.97;5050023;28;20167;-74
2021/12/17 04:15:55;;;;;;;8.20;6.40;;;;;;;6.60;63.13;95158.34;5047299;28;20421;-74
2021/12/17 04:18:21;;;;;;;10.37;6.83;;;;;;;6.50;62.72;95159.44;5046115;28;20445;-73
2021/12/17 04:20:46;;;;;;;5.97;5.37;;;;;;;6.05;64.87;95149.16;5081553;28;20516;-74
2021/12/17 04:23:12;;;;;;;6.40;5.80;;;;;;;6.24;64.79;95144.69;5048436;28;20410;-74
2021/12/17 04:25:37;;;;;;;6.60;5.63;;;;;;;6.47;63.91;95142.38;5048187;28;20172;-74
2021/12/17 04:28:03;;;;;;;6.80;6.20;;;;;;;6.69;63.31;95138.38;5047084;28;20174;-74
2021/12/17 04:30:29;;;;;;;6.33;5.73;;;;;;;6.70;63.72;95129.59;5048125;28;20164;-74
2021/12/17 04:32:55;;;;;;;7.20;6.53;;;;;;;6.48;64.29;95119.78;5046856;28;20168;-73
2021/12/17 04:35:21;;;;;;;6.47;5.53;;;;;;;6.32;64.44;95113.56;5047334;28;20411;-73
2021/12/17 04:37:46;;;;;;;5.80;5.13;;;;;;;6.00;65.37;95116.81;5046435;28;20245;-73
2021/12/17 04:40:12;;;;;;;6.13;5.57;;;;;;;6.08;65.62;95116.03;5044597;28;20418;-73
2021/12/17 04:42:55;;;;;;;5.67;5.17;;;;;;;5.99;65.32;95110.78;5049816;28;20301;-73
2021/12/17 04:45:21;;;;;;;3.73;3.43;;;;;;;6.12;65.22;95107.75;5046664;28;20437;-74
2021/12/17 04:58:44;;;;;;;4.03;3.73;;;;;;;6.13;63.92;95112.00;5047041;28;20441;-73
2021/12/17 05:01:13;;;;;;;3.47;3.17;;;;;;;6.25;64.25;95107.34;5045449;28;20587;-74
2021/12/17 05:03:39;;;;;;;4.10;3.57;;;;;;;6.33;64.16;95099.56;5050820;28;20511;-72
2021/12/17 05:06:05;;;;;;;7.50;5.30;;;;;;;6.17;64.07;95120.31;5051399;28;20417;-73
2021/12/17 05:08:31;;;;;;;3.93;3.73;;;;;;;6.30;64.50;95118.09;5068460;28;20540;-73
2021/12/17 05:11:19;;;;;;;4.90;3.50;;;;;;;6.32;64.18;95108.34;5052916;28;20168;-72
2021/12/17 05:19:26;;;;;;;2.93;2.73;;;;;;;6.25;64.70;95107.34;5053926;28;20463;-74
2021/12/17 05:21:52;;;;;;;3.93;3.73;;;;;;;6.18;64.37;95116.72;5053355;28;20433;-75
2021/12/17 05:24:17;;;;;;;4.40;4.00;;;;;;;6.34;63.79;95111.59;5044598;28;20417;-74
2021/12/17 05:26:43;;;;;;;3.27;3.03;;;;;;;6.20;65.17;95107.81;5047803;28;20185;-75
2021/12/17 05:29:08;;;;;;;3.50;3.20;;;;;;;6.38;64.00;95123.31;5067957;28;20166;-74
2021/12/17 05:31:34;;;;;;;2.83;2.60;;;;;;;6.55;64.05;95115.59;5099435;28;20189;-75
2021/12/17 05:34:00;;;;;;;3.27;2.97;;;;;;;6.39;64.28;95119.75;5066873;28;20169;-75
2021/12/17 05:36:26;;;;;;;3.37;3.07;;;;;;;6.39;64.97;95119.75;5067020;28;20248;-75
2021/12/17 05:38:51;;;;;;;3.20;3.00;;;;;;;6.67;63.46;95110.91;5067215;28;20664;-75
2021/12/17 05:41:17;;;;;;;3.83;3.10;;;;;;;6.36;64.98;95114.88;5065655;28;20444;-75
2021/12/17 05:43:43;;;;;;;2.67;2.50;;;;;;;6.13;65.30;95099.00;5064708;28;20167;-75
2021/12/17 05:46:13;;;;;;;4.97;2.90;;;;;;;6.32;65.25;95095.34;5064412;28;20177;-75
2021/12/17 05:48:40;;;;;;;3.40;3.20;;;;;;;6.49;64.08;95098.00;5063712;28;20174;-76
2021/12/17 05:51:09;;;;;;;4.00;3.70;;;;;;;6.38;64.39;95092.13;5062780;28;20425;-75
2021/12/17 05:53:35;;;;;;;4.60;4.20;;;;;;;6.24;65.02;95093.53;5064525;28;20424;-75
2021/12/17 05:56:01;;;;;;;4.07;3.50;;;;;;;6.68;63.25;95099.50;5062996;28;20437;-75
2021/12/17 05:58:29;;;;;;;4.60;3.80;;;;;;;6.44;64.01;95101.88;5064273;28;20475;-75
2021/12/17 06:00:55;;;;;;;3.17;2.87;;;;;;;6.18;64.88;95112.34;5063046;28;20428;-74
2021/12/17 06:03:23;;;;;;;3.50;3.20;;;;;;;6.26;64.27;95119.38;5064165;28;20409;-75
2021/12/17 06:05:49;;;;;;;5.27;4.40;;;;;;;6.44;63.12;95121.88;5064592;28;20515;-75
2021/12/17 06:08:15;;;;;;;4.07;3.67;;;;;;;6.54;63.31;95132.16;5063204;28;20409;-75
2021/12/17 06:10:41;;;;;;;2.43;2.23;;;;;;;6.31;63.49;95131.91;5063019;28;20444;-74
2021/12/17 06:13:06;;;;;;;2.30;2.10;;;;;;;6.47;62.53;95131.97;5062860;28;20413;-74
2021/12/17 06:15:32;;;;;;;3.00;2.80;;;;;;;6.06;63.82;95129.97;5062492;28;20229;-75
2021/12/17 06:17:58;;;;;;;3.10;2.90;;;;;;;6.40;63.86;95142.16;5064183;28;20300;-74
2021/12/17 06:20:24;;;;;;;2.50;2.27;;;;;;;6.11;63.73;95142.53;5062659;28;20567;-74
2021/12/17 06:22:50;;;;;;;2.37;2.23;;;;;;;6.64;62.43;95151.06;5062981;28;20178;-75
2021/12/17 06:25:17;;;;;;;2.30;2.07;;;;;;;6.42;62.72;95140.22;5064523;28;20416;-75
2021/12/17 06:27:43;;;;;;;3.47;3.27;;;;;;;6.66;62.34;95141.31;5062806;28;20456;-75
2021/12/17 06:30:14;;;;;;;2.70;2.50;;;;;;;6.53;62.81;95133.13;5065623;28;20450;-75
2021/12/17 06:32:40;;;;;;;3.00;2.80;;;;;;;6.13;64.33;95126.75;5067884;28;20425;-75
2021/12/17 06:35:07;;;;;;;3.10;2.30;;;;;;;6.38;63.98;95138.91;5067948;28;20848;-75
2021/12/17 06:37:33;;;;;;;2.17;1.97;;;;;;;6.43;64.62;95134.06;5068245;28;20551;-75
2021/12/17 06:40:00;;;;;;;3.83;3.37;;;;;;;6.56;64.44;95136.22;5068510;28;20417;-75
2021/12/17 06:42:26;;;;;;;3.33;3.03;;;;;;;6.47;64.36;95136.34;5068956;28;20444;-75
2021/12/17 06:44:56;;;;;;;6.10;3.37;;;;;;;5.78;67.79;95131.09;5068545;28;20413;-75
2021/12/17 06:49:57;;;;;;;2.10;1.90;;;;;;;5.78;67.42;95131.88;5068021;28;20448;-74
2021/12/17 06:55:39;;;;;;;3.60;3.37;;;;;;;6.01;67.06;95139.19;5067760;28;20923;-75
2021/12/17 07:10:55;;;;;;;6.00;4.80;;;;;;;6.45;66.18;95142.53;5067330;28;20428;-75
2021/12/17 07:34:08;;;;;;;7.10;6.40;;;;;;;6.38;67.18;95140.72;5065877;28;20536;-74
2021/12/17 07:39:25;;;;;;;7.50;6.53;;;;;;;6.34;68.37;95118.59;5062074;28;20512;-75
2021/12/17 07:41:50;;;;;;;10.17;7.23;;;;;;;6.41;67.42;95123.00;5066727;28;20413;-76
2021/12/17 07:44:16;;;;;;;9.43;5.90;;;;;;;6.26;68.23;95129.78;5076968;28;20182;-75
2021/12/17 07:46:41;;;;;;;4.90;4.47;;;;;;;6.02;69.21;95123.47;5083607;28;20186;-75
2021/12/17 07:49:07;;;;;;;7.37;6.67;;;;;;;6.19;68.96;95128.75;5066583;28;20668;-75
2021/12/17 07:51:32;;;;;;;7.13;6.43;;;;;;;5.94;70.17;95125.16;5066560;28;20181;-75
2021/12/17 07:53:58;;;;;;;7.43;6.70;;;;;;;6.28;69.22;95134.78;5064977;28;20178;-76
2021/12/17 07:56:29;;;;;;;8.17;6.70;;;;;;;6.47;68.99;95131.13;5066466;28;20262;-75
2021/12/17 07:58:55;;;;;;;8.93;8.07;;;;;;;6.34;69.46;95129.81;5066403;28;20646;-75
2021/12/17 08:01:20;;;;;;;7.97;7.27;;;;;;;6.28;69.45;95129.59;5065971;28;20421;-75
2021/12/17 08:03:46;;;;;;;8.57;7.67;;;;;;;6.06;70.58;95140.38;5066024;28;20684;-74
2021/12/17 08:06:12;;;;;;;7.57;6.93;;;;;;;6.04;69.87;95137.13;5066044;28;20174;-75
2021/12/17 08:08:37;;;;;;;8.80;7.97;;;;;;;6.35;69.15;95144.41;5064757;28;20170;-75
2021/12/17 08:11:04;;;;;;;6.70;6.10;;;;;;;6.17;69.90;95151.50;5065902;28;20465;-76
2021/12/17 08:13:33;;;;;;;6.87;5.50;;;;;;;6.27;69.40;95144.38;5064508;28;20194;-76
2021/12/17 08:19:08;;;;;;;5.30;3.90;;;;;;;6.09;70.37;95149.66;5065694;28;20479;-76
2021/12/17 08:32:07;;;;;;;9.80;8.83;;;;;;;6.47;68.79;95118.97;5065876;28;20869;-75
2021/12/17 08:34:33;;;;;;;7.20;5.70;;;;;;;6.33;68.20;95109.97;5045598;28;20492;-75
2021/12/17 08:36:58;;;;;;;7.63;6.93;;;;;;;6.42;68.47;95119.44;5045818;28;20492;-75
2021/12/17 08:39:25;;;;;;;7.83;7.10;;;;;;;6.48;68.13;95117.19;5045609;28;20401;-76
2021/12/17 08:41:52;;;;;;;9.40;7.27;;;;;;;6.94;66.40;95115.03;5043500;28;20577;-75
2021/12/17 08:44:18;;;;;;;6.40;5.50;;;;;;;6.46;67.78;95122.53;5044735;28;20577;-75
2021/12/17 08:46:44;;;;;;;7.53;6.80;;;;;;;6.71;67.44;95107.81;5045009;28;20528;-76
2021/12/17 08:49:10;;;;;;;5.90;5.40;;;;;;;6.96;65.89;95105.25;5045101;28;20171;-75
2021/12/17 08:51:36;;;;;;;6.73;6.13;;;;;;;6.57;67.88;95098.84;5043399;28;20595;-76
2021/12/17 08:54:02;;;;;;;6.07;5.47;;;;;;;6.60;67.42;95098.53;5043686;28;20255;-76
2021/12/17 08:56:36;;;;;;;7.37;6.60;;;;;;;7.05;65.87;95106.91;5045098;28;20568;-76
2021/12/17 08:59:05;;;;;;;5.23;4.50;;;;;;;6.88;66.02;95097.47;5044621;28;20458;-75
2021/12/17 09:01:30;;;;;;;9.73;6.67;;;;;;;6.90;66.57;95095.50;5085498;28;20918;-75
2021/12/17 09:03:56;;;;;;;4.77;4.47;;;;;;;6.52;66.68;95088.09;5083759;28;20412;-77
2021/12/17 09:06:26;;;;;;;7.50;6.10;;;;;;;6.89;66.25;95099.09;5084956;28;20667;-75
2021/12/17 09:08:55;;;;;;;8.00;6.83;;;;;;;6.60;67.48;95088.13;5078267;28;20261;-75
2021/12/17 09:11:23;;;;;;;6.90;6.20;;;;;;;6.78;66.44;95085.41;5063576;28;20432;-76
2021/12/17 09:13:49;;;;;;;8.00;7.30;;;;;;;6.97;66.37;95092.09;5064776;28;20519;-76
2021/12/17 09:16:15;;;;;;;7.90;7.10;;;;;;;6.90;65.93;95080.69;5064513;28;20417;-75
2021/12/17 09:18:42;;;;;;;9.37;7.73;;;;;;;6.88;66.54;95077.44;5064665;28;20449;-76
2021/12/17 09:21:07;;;;;;;8.50;7.20;;;;;;;6.90;66.39;95077.28;5065080;28;20469;-76
2021/12/17 09:23:33;;;;;;;8.67;7.87;;;;;;;6.91;66.64;95068.53;5065167;28;20451;-76
2021/12/17 09:25:58;;;;;;;6.47;4.87;;;;;;;6.60;67.54;95063.91;5064511;28;20235;-78
2021/12/17 09:28:24;;;;;;;8.33;7.50;;;;;;;6.36;69.01;95073.28;5062942;28;20541;-77
2021/12/17 09:30:50;;;;;;;8.60;7.70;;;;;;;6.77;68.06;95075.16;5064534;28;20182;-75
2021/12/17 09:33:16;;;;;;;7.80;7.03;;;;;;;6.60;68.17;95074.31;5064614;28;20182;-76
2021/12/17 09:35:42;;;;;;;8.70;7.90;;;;;;;6.58;68.47;95079.69;5064977;28;20409;-76
2021/12/17 09:38:09;;;;;;;7.37;6.77;;;;;;;5.94;70.67;95075.81;5064865;28;20190;-76
2021/12/17 09:40:34;;;;;;;10.63;9.63;;;;;;;6.61;68.89;95065.53;5064689;28;20171;-75
2021/12/17 09:43:00;;;;;;;8.77;7.87;;;;;;;6.59;68.94;95062.28;5064567;28;20440;-75
2021/12/17 09:45:25;;;;;;;9.00;7.70;;;;;;;6.34;69.59;95057.03;5064385;28;20177;-76
2021/12/17 09:47:51;;;;;;;11.20;9.67;;;;;;;6.58;68.80;95051.09;5063821;28;20166;-76
2021/12/17 09:50:20;;;;;;;7.07;6.47;;;;;;;6.29;69.93;95041.09;5062852;28;20193;-76
2021/12/17 09:52:47;;;;;;;9.50;8.60;;;;;;;6.70;68.38;95028.19;5063130;28;20187;-76
2021/12/17 09:55:13;;;;;;;7.53;6.87;;;;;;;6.48;69.23;95028.78;5064442;28;20413;-76
2021/12/17 09:57:38;;;;;;;10.10;9.13;;;;;;;6.98;67.67;95018.28;5064696;28;20531;-75
2021/12/17 10:00:11;;;;;;;7.73;7.00;;;;;;;6.58;69.34;95021.66;5062992;28;20417;-76
2021/12/17 10:02:37;;;;;;;10.47;9.03;;;;;;;7.24;66.88;95022.50;5064314;28;20171;-76
2021/12/17 10:05:03;;;;;;;9.83;8.80;;;;;;;7.01;67.36;95022.34;5065308;28;20412;-76
2021/12/17 10:07:30;;;;;;;9.93;9.03;;;;;;;7.32;66.49;95016.47;5066941;28;20661;-77
2021/12/17 10:09:58;;;;;;;10.40;8.87;;;;;;;7.04;66.82;95011.63;5066874;28;20431;-76
2021/12/17 10:12:26;;;;;;;10.90;9.47;;;;;;;7.14;66.37;94995.84;5068855;28;20421;-76
2021/12/17 10:15:03;;;;;;;11.40;10.20;;;;;;;7.57;65.80;94993.78;5068167;28;20436;-76
2021/12/17 10:17:28;;;;;;;11.70;10.50;;;;;;;7.35;66.55;94982.31;5066620;28;20464;-76
2021/12/17 10:19:54;;;;;;;10.33;9.20;;;;;;;7.54;65.54;94989.75;5067873;28;20499;-76
2021/12/17 10:22:21;;;;;;;5.80;5.10;;;;;;;7.30;65.36;94976.78;5066346;28;20439;-76
2021/12/17 10:25:08;;;;;;;9.10;7.53;;;;;;;7.15;66.84;94968.81;5067806;28;20419;-76
2021/12/17 10:27:37;;;;;;;9.17;8.23;;;;;;;7.59;65.36;94971.81;5066323;28;20500;-76
2021/12/17 10:30:12;;;;;;;8.40;7.60;;;;;;;7.31;65.15;94952.38;5067824;28;20416;-75
2021/12/17 10:32:41;;;;;;;7.70;7.00;;;;;;;7.24;65.78;94960.03;5067932;28;20432;-78
2021/12/17 10:35:19;;;;;;;5.73;5.23;;;;;;;6.84;66.70;94957.31;5067295;28;20405;-76
2021/12/17 10:37:52;;;;;;;8.00;5.30;;;;;;;6.79;66.96;94953.56;5066348;28;20470;-76
2021/12/17 10:40:45;;;;;;;5.50;5.00;;;;;;;7.26;65.22;94941.66;5067590;28;20464;-76
2021/12/17 10:46:00;;;;;;;5.13;4.70;;;;;;;7.33;65.94;94921.78;5067814;28;20428;-76
2021/12/17 10:51:13;;;;;;;7.20;6.07;;;;;;;6.95;66.87;94911.94;5067841;28;20524;-76
2021/12/17 10:53:44;;;;;;;6.53;5.93;;;;;;;6.97;67.27;94917.78;5066324;28;20416;-76
2021/12/17 10:56:15;;;;;;;7.10;5.17;;;;;;;6.67;67.49;94924.47;5066001;28;20436;-76
2021/12/17 10:59:00;;;;;;;6.13;5.13;;;;;;;6.87;67.27;94929.34;5054327;28;20453;-76
2021/12/17 11:01:35;;;;;;;6.90;6.27;;;;;;;6.76;67.37;94927.91;5047111;28;20418;-76
2021/12/17 11:04:26;;;;;;;6.27;5.67;;;;;;;7.09;66.45;94926.06;5047050;28;20485;-76
2021/12/17 11:07:00;;;;;;;7.57;6.80;;;;;;;7.11;66.80;94918.91;5045655;28;20438;-76
2021/12/17 11:09:55;;;;;;;8.60;6.67;;;;;;;7.52;66.12;94924.00;5047120;28;20428;-76
2021/12/17 11:12:33;;;;;;;7.27;6.60;;;;;;;7.17;67.22;94925.22;5046723;28;20513;-76
2021/12/17 11:15:20;;;;;;;7.27;6.67;;;;;;;6.97;67.88;94914.38;5046213;28;20426;-76
2021/12/17 11:17:48;;;;;;;8.50;7.37;;;;;;;7.02;68.35;94912.91;5046978;28;20548;-76
2021/12/17 11:20:17;;;;;;;7.90;7.10;;;;;;;7.11;67.29;94916.28;5046655;28;20462;-76
2021/12/17 11:22:44;;;;;;;6.67;5.97;;;;;;;7.11;68.64;94910.28;5045684;28;20429;-76
2021/12/17 11:25:11;;;;;;;6.47;5.87;;;;;;;6.72;69.40;94905.81;5045251;28;20418;-76
2021/12/17 11:27:36;;;;;;;9.00;6.87;;;;;;;6.57;70.42;94884.84;5046818;28;20975;-76
2021/12/17 11:30:05;;;;;;;7.73;6.90;;;;;;;6.36;70.45;94896.53;5063112;28;20421;-76
2021/12/17 11:32:31;;;;;;;8.80;7.93;;;;;;;7.10;68.71;94893.06;5066789;28;20262;-77
2021/12/17 11:34:59;;;;;;;6.80;6.17;;;;;;;6.90;68.60;94882.19;5064912;28;20421;-76
2021/12/17 11:37:25;;;;;;;6.17;5.60;;;;;;;6.73;69.79;94889.22;5066516;28;20472;-76
2021/12/17 11:40:04;;;;;;;8.90;6.30;;;;;;;6.61;69.68;94889.53;5066172;28;20899;-76
2021/12/17 11:42:49;;;;;;;7.63;6.60;;;;;;;6.64;69.67;94883.22;5066761;28;20420;-77
2021/12/17 11:45:29;;;;;;;7.07;6.30;;;;;;;6.59;69.85;94873.28;5065147;28;20432;-77
2021/12/17 11:48:16;;;;;;;5.10;4.60;;;;;;;6.43;70.21;94868.94;5066354;28;20900;-76
2021/12/17 11:50:42;;;;;;;6.07;5.30;;;;;;;6.77;69.52;94851.50;5046799;28;20462;-77
2021/12/17 11:53:21;;;;;;;7.60;5.77;;;;;;;6.73;70.01;94858.81;5045038;28;20411;-77
2021/12/17 11:55:55;;;;;;;7.67;6.63;;;;;;;6.80;69.02;94862.38;5045461;28;20429;-77
2021/12/17 11:58:51;;;;;;;6.60;6.00;;;;;;;6.79;68.75;94863.38;5056334;28;20444;-77
2021/12/17 12:01:46;;;;;;;6.53;5.93;;;;;;;6.91;68.82;94863.81;5066422;28;20491;-77
2021/12/17 12:04:22;;;;;;;7.60;5.80;;;;;;;6.63;69.36;94855.59;5048459;28;20429;-77
2021/12/17 12:07:02;;;;;;;3.80;3.60;;;;;;;6.01;70.23;94853.47;5064845;28;20429;-77
2021/12/17 12:09:56;;;;;;;4.50;4.10;;;;;;;6.32;69.54;94851.06;5065484;28;20472;-77
2021/12/17 12:12:23;;;;;;;4.83;4.20;;;;;;;6.29;69.11;94859.16;5064866;28;20421;-77
2021/12/17 12:14:48;;;;;;;5.17;4.67;;;;;;;6.37;68.39;94856.56;5066236;28;20405;-77
2021/12/17 12:17:13;;;;;;;5.23;4.80;;;;;;;6.35;68.21;94852.50;5066327;28;20420;-76
2021/12/17 12:19:49;;;;;;;5.07;4.57;;;;;;;6.79;67.12;94841.72;5064375;28;20724;-77
2021/12/17 12:22:30;;;;;;;5.87;5.30;;;;;;;6.87;66.51;94833.09;5064837;28;20676;-77
2021/12/17 12:25:29;;;;;;;5.80;5.30;;;;;;;6.99;65.32;94827.38;5064322;28;20409;-77
2021/12/17 12:27:55;;;;;;;4.50;4.20;;;;;;;6.97;65.24;94818.13;5029754;28;20428;-77
2021/12/17 12:30:42;;;;;;;5.47;5.07;;;;;;;6.59;66.24;94808.28;5065669;28;20467;-77
2021/12/17 12:33:10;;;;;;;5.83;5.27;;;;;;;6.68;65.84;94813.47;5066306;28;20416;-77
2021/12/17 12:35:36;;;;;;;5.97;5.40;;;;;;;6.96;64.04;94793.06;5064147;28;20820;-77
2021/12/17 12:38:20;;;;;;;10.33;5.77;;;;;;;6.78;65.07;94791.50;5064354;28;20545;-77
2021/12/17 12:40:55;;;;;;;4.47;4.00;;;;;;;6.06;65.58;94781.88;5045916;28;20469;-77
2021/12/17 12:43:32;;;;;;;4.50;4.10;;;;;;;6.27;64.71;94793.56;5045538;28;20417;-77
2021/12/17 12:45:59;;;;;;;4.83;4.43;;;;;;;6.29;65.00;94796.81;5077271;28;20440;-77
2021/12/17 12:48:38;;;;;;;4.27;3.87;;;;;;;6.09;66.12;94792.91;5064575;28;20420;-77
2021/12/17 12:51:22;;;;;;;4.57;4.20;;;;;;;6.09;65.55;94783.34;5063890;28;20436;-77
2021/12/17 12:54:06;;;;;;;3.23;3.03;;;;;;;6.05;64.94;94785.47;5065454;28;20477;-76
2021/12/17 12:56:32;;;;;;;4.60;4.10;;;;;;;6.16;64.95;94789.50;5066487;28;20490;-77
2021/12/17 12:58:58;;;;;;;4.13;3.83;;;;;;;6.47;63.08;94793.19;5064788;28;20453;-77
2021/12/17 13:01:24;;;;;;;3.90;3.70;;;;;;;6.34;63.37;94794.53;5080473;28;20436;-77
2021/12/17 13:03:50;;;;;;;4.70;4.27;;;;;;;6.72;62.78;94792.19;5084076;28;20174;-77
2021/12/17 13:06:18;;;;;;;4.63;3.97;;;;;;;6.63;63.00;94774.97;5084452;28;20512;-77
2021/12/17 13:08:53;;;;;;;4.37;3.60;;;;;;;6.98;61.19;94778.09;5085245;28;20232;-76
2021/12/17 13:11:21;;;;;;;4.50;3.73;;;;;;;6.82;61.57;94798.00;5084027;28;21289;-77
2021/12/17 13:13:55;;;;;;;4.00;3.70;;;;;;;6.57;62.45;94802.44;5085058;28;20452;-76
2021/12/17 13:16:36;;;;;;;2.90;2.27;;;;;;;6.42;62.08;94793.72;5085256;28;20423;-77
2021/12/17 13:22:00;;;;;;;3.37;3.13;;;;;;;6.48;61.75;94794.84;5085873;28;20441;-77
2021/12/17 13:24:29;;;;;;;3.27;2.97;;;;;;;6.08;62.48;94819.88;5085400;28;20395;-76
2021/12/17 13:26:57;;;;;;;4.30;3.90;;;;;;;6.58;61.46;94801.50;5085512;28;20445;-77
2021/12/17 13:29:33;;;;;;;3.50;3.20;;;;;;;6.43;61.07;94787.53;5084136;28;20428;-77
2021/12/17 13:32:05;;;;;;;4.40;3.53;;;;;;;6.26;61.15;94789.34;5085200;28;20419;-76
2021/12/17 13:34:38;;;;;;;3.80;3.37;;;;;;;6.17;61.06;94792.94;5072307;28;20441;-77
2021/12/17 13:37:15;;;;;;;3.07;2.80;;;;;;;6.53;59.94;94788.16;5068463;28;20439;-77
2021/12/17 13:39:54;;;;;;;3.03;2.83;;;;;;;6.06;61.46;94789.66;5075282;28;20432;-76
2021/12/17 13:42:23;;;;;;;4.90;3.80;;;;;;;6.63;60.30;94809.59;5069784;28;20570;-77
2021/12/17 13:44:52;;;;;;;3.00;2.80;;;;;;;6.25;60.35;94801.50;5069090;28;20512;-77
2021/12/17 13:47:36;;;;;;;4.30;3.90;;;;;;;6.63;60.11;94795.78;5068152;28;20455;-77
2021/12/17 13:50:12;;;;;;;4.73;4.43;;;;;;;6.28;60.00;94796.97;5069371;28;20416;-77
2021/12/17 13:52:50;;;;;;;4.87;3.70;;;;;;;6.33;60.02;94800.69;5069488;28;20424;-77
2021/12/17 13:55:22;;;;;;;3.13;2.93;;;;;;;5.97;60.63;94788.03;5067708;28;20420;-77
2021/12/17 13:57:48;;;;;;;5.07;4.67;;;;;;;6.74;59.33;94794.63;5070454;28;20460;-77
2021/12/17 14:00:28;;;;;;;5.07;4.60;;;;;;;6.91;58.46;94793.59;5067765;28;20421;-76
2021/12/17 14:02:55;;;;;;;4.30;3.90;;;;;;;6.82;58.73;94803.19;5067536;28;20189;-77
2021/12/17 14:05:28;;;;;;;3.60;3.30;;;;;;;6.47;60.10;94790.59;5068178;28;20417;-77
2021/12/17 14:07:57;;;;;;;3.60;3.30;;;;;;;6.37;60.94;94778.59;5068062;28;20437;-77
2021/12/17 14:10:34;;;;;;;2.47;2.27;;;;;;;6.57;59.87;94776.47;5068752;28;20413;-78
2021/12/17 14:13:01;;;;;;;3.23;3.00;;;;;;;6.71;60.06;94774.16;5068625;28;20408;-77
2021/12/17 14:15:34;;;;;;;3.70;3.40;;;;;;;6.73;59.69;94780.00;5068301;28;20890;-77
2021/12/17 14:18:02;;;;;;;3.20;2.97;;;;;;;6.54;60.79;94776.78;5068709;28;20789;-77
2021/12/17 14:20:36;;;;;;;3.83;2.87;;;;;;;6.23;60.89;94803.47;5066565;28;21055;-76
2021/12/17 14:23:16;;;;;;;3.90;3.60;;;;;;;6.51;60.41;94804.91;5068113;28;20408;-77
2021/12/17 14:25:43;;;;;;;4.10;3.70;;;;;;;6.24;60.47;94810.31;5066875;28;20413;-77
2021/12/17 14:28:13;;;;;;;4.73;3.03;;;;;;;6.45;59.94;94809.78;5068093;28;20813;-77
2021/12/17 14:30:40;;;;;;;2.60;2.40;;;;;;;5.66;62.10;94791.22;5068034;28;20412;-77
2021/12/17 14:33:13;;;;;;;4.33;3.83;;;;;;;6.12;60.73;94810.78;5066509;28;20412;-76
2021/12/17 14:35:52;;;;;;;4.20;3.70;;;;;;;6.02;61.41;94811.75;5066421;28;20432;-77
2021/12/17 14:38:21;;;;;;;4.47;3.87;;;;;;;6.41;60.28;94811.09;5068115;28;20460;-77
2021/12/17 14:40:54;;;;;;;4.00;3.33;;;;;;;5.83;61.63;94804.25;5067523;28;20478;-76
2021/12/17 14:43:36;;;;;;;2.80;2.60;;;;;;;5.66;62.26;94799.03;5068430;28;20462;-76
2021/12/17 14:48:49;;;;;;;3.07;2.87;;;;;;;5.06;63.89;94814.75;5068043;28;20476;-76
2021/12/17 15:04:47;;;;;;;3.20;3.00;;;;;;;5.75;62.61;94831.00;5067546;28;20417;-77
2021/12/17 15:07:13;;;;;;;4.77;4.43;;;;;;;5.83;61.94;94844.00;5066145;28;20429;-77